Time;durP1;ratioP1;P1;durP2;ratioP2;P2;SDS_P1;SDS_P2;PMS_P1;PMS_P2;Temp;Humidity;BMP_temperature;BMP_pressure;BME280_temperature;BME280_humidity;BME280_pressure;Samples;Min_cycle;Max_cycle;Signal;HPM_P1;HPM_P2
2022/03/15 00:00:42;;;;;;;155.55;46.33;;;6.90;99.90;;;;;;5031018;28;20060;-53
2022/03/15 00:03:08;;;;;;;137.68;44.85;;;6.90;99.90;;;;;;5031476;28;20064;-52
2022/03/15 00:05:34;;;;;;;140.68;47.38;;;6.90;99.90;;;;;;5029624;28;20112;-54
2022/03/15 00:08:00;;;;;;;129.23;45.00;;;6.90;99.90;;;;;;5031198;28;20036;-56
2022/03/15 00:10:28;;;;;;;246.95;49.42;;;6.90;99.90;;;;;;5030845;28;20509;-58
2022/03/15 00:12:57;;;;;;;191.13;49.05;;;6.90;99.90;;;;;;5031052;28;20084;-56
2022/03/15 00:15:24;;;;;;;224.48;48.08;;;6.90;99.90;;;;;;5029878;28;20029;-52
2022/03/15 00:17:50;;;;;;;165.07;46.35;;;6.80;99.90;;;;;;5031320;28;20479;-55
2022/03/15 00:20:22;;;;;;;251.65;45.38;;;6.80;99.90;;;;;;5030709;28;20063;-52
2022/03/15 00:22:50;;;;;;;294.65;48.25;;;6.80;99.90;;;;;;5031454;28;20103;-54
2022/03/15 00:25:17;;;;;;;326.77;47.53;;;6.80;99.90;;;;;;5029923;28;20029;-54
2022/03/15 00:27:44;;;;;;;352.55;48.08;;;6.70;99.90;;;;;;5029622;28;20033;-53
2022/03/15 00:30:10;;;;;;;323.48;48.13;;;6.60;99.90;;;;;;5030643;28;20040;-56
2022/03/15 00:32:36;;;;;;;374.02;51.33;;;6.60;99.90;;;;;;5031068;28;20021;-55
2022/03/15 00:35:11;;;;;;;401.33;56.15;;;6.60;99.90;;;;;;5028527;28;20037;-57
2022/03/15 00:37:37;;;;;;;322.75;51.63;;;6.50;99.90;;;;;;5030948;28;20045;-56
2022/03/15 00:40:04;;;;;;;383.27;52.53;;;6.60;99.90;;;;;;5029840;28;20033;-56
2022/03/15 00:42:30;;;;;;;301.85;53.70;;;6.60;99.90;;;;;;5030424;28;20033;-61
2022/03/15 00:44:58;;;;;;;337.50;53.15;;;6.60;99.90;;;;;;5029906;28;20040;-60
2022/03/15 00:47:24;;;;;;;366.67;54.97;;;6.60;99.90;;;;;;5030613;28;20030;-55
2022/03/15 00:49:49;;;;;;;326.85;53.10;;;6.60;99.90;;;;;;5029636;28;20037;-51
2022/03/15 00:52:15;;;;;;;325.73;57.33;;;6.60;99.90;;;;;;5030152;28;20618;-60
2022/03/15 00:54:41;;;;;;;320.38;54.33;;;6.60;99.90;;;;;;5030178;28;20032;-59
2022/03/15 00:57:06;;;;;;;298.50;55.22;;;6.60;99.90;;;;;;5029084;28;20026;-56
2022/03/15 00:59:32;;;;;;;254.63;51.75;;;6.60;99.90;;;;;;5030050;28;20033;-54
2022/03/15 01:01:58;;;;;;;261.10;53.58;;;6.60;99.90;;;;;;5012168;28;20034;-54
2022/03/15 01:04:24;;;;;;;248.88;52.33;;;6.50;99.90;;;;;;5029963;28;20422;-60
2022/03/15 01:06:50;;;;;;;274.63;55.38;;;6.60;99.90;;;;;;5028725;28;20049;-59
2022/03/15 01:09:15;;;;;;;235.23;53.22;;;6.60;99.90;;;;;;5029502;28;20029;-60
2022/03/15 01:11:41;;;;;;;218.27;49.40;;;6.60;99.90;;;;;;5030155;28;20398;-58
2022/03/15 01:14:07;;;;;;;268.15;52.20;;;6.50;99.90;;;;;;5028940;28;20387;-59
2022/03/15 01:16:34;;;;;;;226.70;49.40;;;6.50;99.90;;;;;;5029643;28;20068;-58
2022/03/15 01:19:00;;;;;;;251.98;54.05;;;6.50;99.90;;;;;;5029795;28;20036;-55
2022/03/15 01:21:26;;;;;;;229.90;53.60;;;6.50;99.90;;;;;;5030248;28;20116;-58
2022/03/15 01:23:53;;;;;;;203.63;52.97;;;6.40;99.90;;;;;;5045348;28;20033;-60
2022/03/15 01:26:19;;;;;;;228.00;55.22;;;6.50;99.90;;;;;;5029423;28;20073;-59
2022/03/15 01:28:45;;;;;;;174.65;51.10;;;6.50;99.90;;;;;;5029997;28;20033;-60
2022/03/15 01:31:11;;;;;;;196.38;53.15;;;6.50;99.90;;;;;;5028277;28;20035;-59
2022/03/15 01:33:37;;;;;;;204.57;53.58;;;6.50;99.90;;;;;;5030281;28;20542;-57
2022/03/15 01:36:03;;;;;;;162.05;51.72;;;6.50;99.90;;;;;;5028707;28;20026;-58
2022/03/15 01:38:29;;;;;;;199.10;53.05;;;6.60;99.90;;;;;;5029579;28;20152;-52
2022/03/15 01:40:55;;;;;;;168.20;55.30;;;6.60;99.90;;;;;;5029743;28;20104;-51
2022/03/15 01:43:21;;;;;;;166.32;53.28;;;6.50;99.90;;;;;;5029492;28;20036;-54
2022/03/15 01:45:47;;;;;;;164.85;54.70;;;6.50;99.90;;;;;;5029148;28;20018;-54
2022/03/15 01:48:12;;;;;;;145.38;51.72;;;6.60;99.90;;;;;;5029172;28;20049;-56
2022/03/15 01:50:38;;;;;;;154.15;51.83;;;6.60;99.90;;;;;;5029755;28;20030;-56
2022/03/15 01:53:06;;;;;;;165.65;50.80;;;6.60;99.90;;;;;;5028978;28;20021;-55
2022/03/15 01:55:32;;;;;;;169.90;50.50;;;6.50;99.90;;;;;;5029312;28;20380;-56
2022/03/15 01:57:58;;;;;;;149.25;51.15;;;6.50;99.90;;;;;;5029110;28;20060;-55
2022/03/15 02:00:23;;;;;;;161.48;46.92;;;6.50;99.90;;;;;;5029564;28;20046;-55
2022/03/15 02:02:49;;;;;;;180.40;50.55;;;6.50;99.90;;;;;;5028417;28;20037;-57
2022/03/15 02:05:15;;;;;;;137.57;49.97;;;6.40;99.90;;;;;;5026991;28;20041;-55
2022/03/15 02:07:40;;;;;;;126.78;45.00;;;6.50;99.90;;;;;;5029452;28;20033;-56
2022/03/15 02:10:06;;;;;;;129.93;46.85;;;6.40;99.90;;;;;;5028978;28;20025;-56
2022/03/15 02:12:36;;;;;;;127.30;47.28;;;6.40;99.90;;;;;;5029530;28;20175;-58
2022/03/15 02:15:03;;;;;;;121.47;45.75;;;6.40;99.90;;;;;;5028052;28;20104;-53
2022/03/15 02:17:29;;;;;;;117.68;44.33;;;6.40;99.90;;;;;;5029596;28;20038;-57
2022/03/15 02:19:55;;;;;;;115.95;45.60;;;6.40;99.90;;;;;;5029441;28;20037;-56
2022/03/15 02:22:22;;;;;;;127.55;44.78;;;6.30;99.90;;;;;;5028908;28;20450;-58
2022/03/15 02:24:47;;;;;;;143.75;44.00;;;6.30;99.90;;;;;;5032687;28;20040;-60
2022/03/15 02:27:13;;;;;;;159.57;44.35;;;6.20;99.90;;;;;;5032201;28;20033;-61
2022/03/15 02:29:39;;;;;;;150.40;45.38;;;6.20;99.90;;;;;;5033951;28;20064;-59
2022/03/15 02:32:05;;;;;;;114.15;46.47;;;6.20;99.90;;;;;;5033305;28;20029;-53
2022/03/15 02:34:30;;;;;;;167.02;42.97;;;6.20;99.90;;;;;;5033149;28;20033;-53
2022/03/15 02:36:56;;;;;;;136.55;40.33;;;6.20;99.90;;;;;;5033083;28;20482;-54
2022/03/15 02:39:22;;;;;;;125.05;41.30;;;6.20;99.90;;;;;;5033788;28;20064;-53
2022/03/15 02:41:48;;;;;;;129.48;40.90;;;6.10;99.90;;;;;;5033549;28;20053;-51
2022/03/15 02:44:13;;;;;;;116.13;41.67;;;6.10;99.90;;;;;;5032947;28;20068;-55
2022/03/15 02:46:39;;;;;;;134.30;38.75;;;6.10;99.90;;;;;;5032665;28;20029;-58
2022/03/15 02:49:06;;;;;;;149.45;39.58;;;6.10;99.90;;;;;;5032303;28;20028;-57
2022/03/15 02:51:32;;;;;;;144.48;39.33;;;6.00;99.90;;;;;;5032731;28;20449;-52
2022/03/15 02:54:02;;;;;;;98.00;38.72;;;6.00;99.90;;;;;;5033243;28;20180;-54
2022/03/15 02:56:29;;;;;;;182.60;40.55;;;6.00;99.90;;;;;;5032585;28;20036;-53
2022/03/15 02:58:55;;;;;;;90.90;37.25;;;6.00;99.90;;;;;;5032466;28;20068;-52
2022/03/15 03:01:21;;;;;;;79.30;38.42;;;6.00;99.90;;;;;;5032694;28;20057;-50
2022/03/15 03:03:47;;;;;;;101.15;41.65;;;6.10;99.90;;;;;;5032262;28;20128;-53
2022/03/15 03:06:13;;;;;;;131.55;42.22;;;6.10;99.90;;;;;;5031771;28;20036;-51
2022/03/15 03:08:40;;;;;;;107.88;43.35;;;6.10;99.90;;;;;;5032641;28;20045;-53
2022/03/15 03:11:05;;;;;;;98.35;40.95;;;6.10;99.90;;;;;;5032388;28;20429;-52
2022/03/15 03:13:31;;;;;;;217.00;38.85;;;6.10;99.90;;;;;;5032884;28;20036;-53
2022/03/15 03:16:00;;;;;;;92.80;35.40;;;5.90;99.90;;;;;;5031542;28;20109;-50
2022/03/15 03:18:34;;;;;;;105.28;37.17;;;5.90;99.90;;;;;;5032203;28;20060;-50
2022/03/15 03:21:01;;;;;;;147.57;39.83;;;5.80;99.90;;;;;;5031812;28;20029;-65
2022/03/15 03:23:28;;;;;;;89.35;38.05;;;5.80;99.90;;;;;;5032397;28;20064;-50
2022/03/15 03:25:56;;;;;;;81.30;37.72;;;5.80;99.90;;;;;;5032092;28;20030;-57
2022/03/15 03:28:23;;;;;;;123.82;39.28;;;5.90;99.90;;;;;;5032033;28;20029;-52
2022/03/15 03:30:48;;;;;;;161.63;36.95;;;5.90;99.90;;;;;;5032104;28;20609;-52
2022/03/15 03:33:16;;;;;;;183.55;40.65;;;5.90;99.90;;;;;;5031583;28;20068;-59
2022/03/15 03:35:43;;;;;;;171.57;41.22;;;5.90;99.90;;;;;;5030508;28;20038;-52
2022/03/15 03:38:09;;;;;;;231.98;41.42;;;5.90;99.90;;;;;;5031512;28;20511;-57
2022/03/15 03:40:35;;;;;;;175.43;42.08;;;5.80;99.90;;;;;;5032008;28;20037;-52
2022/03/15 03:43:01;;;;;;;235.43;42.33;;;5.80;99.90;;;;;;5031496;28;20482;-57
2022/03/15 03:45:26;;;;;;;97.93;40.17;;;5.70;99.90;;;;;;5031370;28;20033;-52
2022/03/15 03:47:52;;;;;;;118.25;43.50;;;5.80;99.90;;;;;;5031788;28;20434;-53
2022/03/15 03:50:19;;;;;;;107.35;40.95;;;5.80;99.90;;;;;;5031225;28;20044;-52
2022/03/15 03:52:45;;;;;;;103.57;41.55;;;5.80;99.90;;;;;;5031730;28;20097;-53
2022/03/15 03:55:10;;;;;;;159.85;42.58;;;5.80;99.90;;;;;;5030257;28;20030;-54
2022/03/15 03:57:37;;;;;;;111.28;41.63;;;5.80;99.90;;;;;;5031391;28;20035;-52
2022/03/15 04:00:04;;;;;;;131.82;44.10;;;5.80;99.90;;;;;;5030563;28;20033;-52
2022/03/15 04:02:30;;;;;;;159.85;47.97;;;5.80;99.90;;;;;;5031306;28;20017;-51
2022/03/15 04:04:55;;;;;;;156.18;49.22;;;5.90;99.90;;;;;;5030670;28;20025;-61
2022/03/15 04:07:21;;;;;;;148.65;48.60;;;5.80;99.90;;;;;;5031103;28;20072;-52
2022/03/15 04:09:47;;;;;;;208.75;51.33;;;5.90;99.90;;;;;;5031391;28;20372;-53
2022/03/15 04:12:13;;;;;;;153.93;50.80;;;5.90;99.90;;;;;;5030840;28;20331;-51
2022/03/15 04:14:39;;;;;;;145.65;51.90;;;5.80;99.90;;;;;;5031352;28;20083;-51
2022/03/15 04:17:07;;;;;;;162.15;52.05;;;5.90;99.90;;;;;;5030376;28;20423;-50
2022/03/15 04:19:33;;;;;;;154.35;52.47;;;5.80;99.90;;;;;;5030795;28;20075;-52
2022/03/15 04:21:59;;;;;;;180.35;56.97;;;5.80;99.90;;;;;;5030710;28;20033;-52
2022/03/15 04:24:25;;;;;;;191.93;61.42;;;5.80;99.90;;;;;;5030679;28;20032;-50
2022/03/15 04:26:51;;;;;;;214.95;60.17;;;5.80;99.90;;;;;;5030562;28;20033;-50
2022/03/15 04:29:17;;;;;;;261.70;63.20;;;5.90;99.90;;;;;;5029994;28;20033;-51
2022/03/15 04:31:43;;;;;;;343.67;63.92;;;5.80;99.90;;;;;;5030915;28;20075;-51
2022/03/15 04:34:09;;;;;;;206.93;63.10;;;5.80;99.90;;;;;;5030318;28;20029;-51
2022/03/15 04:36:37;;;;;;;261.92;61.80;;;5.80;99.90;;;;;;5030349;28;20021;-54
2022/03/15 04:39:04;;;;;;;287.70;69.05;;;5.70;99.90;;;;;;5030357;28;20018;-50
2022/03/15 04:41:29;;;;;;;323.65;65.03;;;5.70;99.90;;;;;;5029270;28;20052;-52
2022/03/15 04:43:56;;;;;;;247.63;66.88;;;5.70;99.90;;;;;;5030312;28;20402;-51
2022/03/15 04:46:22;;;;;;;246.10;68.45;;;5.60;99.90;;;;;;5029677;28;20105;-51
2022/03/15 04:48:48;;;;;;;373.63;70.50;;;5.70;99.90;;;;;;5030792;28;20381;-55
2022/03/15 04:51:14;;;;;;;305.98;66.88;;;5.80;99.90;;;;;;5030142;28;20168;-51
2022/03/15 04:53:39;;;;;;;283.67;69.85;;;5.80;99.90;;;;;;5030287;28;20048;-51
2022/03/15 04:56:05;;;;;;;245.38;69.13;;;5.70;99.90;;;;;;5029296;28;20399;-52
2022/03/15 04:58:31;;;;;;;269.58;65.25;;;5.70;99.90;;;;;;5030297;28;20112;-52
2022/03/15 05:00:57;;;;;;;251.00;66.85;;;5.70;99.90;;;;;;5030391;28;20052;-53
2022/03/15 05:03:23;;;;;;;287.88;67.57;;;5.60;99.90;;;;;;5030302;28;20394;-51
2022/03/15 05:05:48;;;;;;;236.43;67.93;;;5.60;99.90;;;;;;5029762;28;20033;-55
2022/03/15 05:08:15;;;;;;;239.15;65.78;;;5.60;99.90;;;;;;5029882;28;20053;-52
2022/03/15 05:13:27;;;;;;;468.35;68.50;;;5.60;99.90;;;;;;5030327;28;20116;-55
2022/03/15 05:15:55;;;;;;;245.80;59.00;;;5.50;99.90;;;;;;5029079;28;20029;-56
2022/03/15 05:18:20;;;;;;;291.98;66.45;;;5.40;99.90;;;;;;5029844;28;20022;-55
2022/03/15 05:20:46;;;;;;;371.73;66.50;;;5.40;99.90;;;;;;5029957;28;20037;-50
2022/03/15 05:23:12;;;;;;;236.68;65.57;;;5.50;99.90;;;;;;5029727;28;20033;-50
2022/03/15 05:25:37;;;;;;;240.32;62.80;;;5.50;99.90;;;;;;5029554;28;20057;-51
2022/03/15 05:28:06;;;;;;;481.52;61.50;;;5.50;99.90;;;;;;5029077;28;20455;-55
2022/03/15 05:30:32;;;;;;;306.67;54.63;;;5.40;99.90;;;;;;5029822;28;20363;-51
2022/03/15 05:32:58;;;;;;;263.70;52.17;;;5.40;99.90;;;;;;5029475;28;20117;-51
2022/03/15 05:35:23;;;;;;;217.65;52.95;;;5.40;99.90;;;;;;5029100;28;20022;-52
2022/03/15 05:37:49;;;;;;;270.85;55.63;;;5.40;99.90;;;;;;5029569;28;20034;-55
2022/03/15 05:40:15;;;;;;;399.50;60.30;;;5.50;99.90;;;;;;5029453;28;20029;-50
2022/03/15 05:42:40;;;;;;;293.45;58.97;;;5.40;99.90;;;;;;5029558;28;20026;-51
2022/03/15 05:45:06;;;;;;;247.85;59.42;;;5.40;99.90;;;;;;5028840;28;20029;-52
2022/03/15 05:47:32;;;;;;;217.13;56.80;;;5.30;99.90;;;;;;5029665;28;20048;-51
2022/03/15 05:49:58;;;;;;;322.98;60.95;;;5.40;99.90;;;;;;5029293;28;20555;-53
2022/03/15 05:52:23;;;;;;;328.83;58.17;;;5.40;99.90;;;;;;5029497;28;20029;-53
2022/03/15 05:54:49;;;;;;;349.70;58.75;;;5.40;99.90;;;;;;5029891;28;20052;-51
2022/03/15 05:57:14;;;;;;;225.05;55.72;;;5.40;99.90;;;;;;5029175;28;20026;-51
2022/03/15 05:59:40;;;;;;;363.13;53.05;;;5.50;99.90;;;;;;5033168;28;20072;-51
2022/03/15 06:02:05;;;;;;;421.20;55.90;;;5.40;99.90;;;;;;5033097;28;20018;-56
2022/03/15 06:04:32;;;;;;;479.00;56.08;;;5.30;99.90;;;;;;5034168;28;20030;-50
2022/03/15 06:07:00;;;;;;;300.42;54.08;;;5.30;99.90;;;;;;5033012;28;20030;-54
2022/03/15 06:09:26;;;;;;;343.55;50.42;;;5.30;99.90;;;;;;5032483;28;20080;-50
2022/03/15 06:11:54;;;;;;;337.00;56.63;;;5.30;99.90;;;;;;5033449;28;20041;-51
2022/03/15 06:14:20;;;;;;;419.58;57.08;;;5.30;99.90;;;;;;5031627;28;20044;-50
2022/03/15 06:16:46;;;;;;;240.88;50.78;;;5.20;99.90;;;;;;5032865;28;20025;-51
2022/03/15 06:19:12;;;;;;;350.65;53.22;;;5.20;99.90;;;;;;5031319;28;20021;-51
2022/03/15 06:21:39;;;;;;;229.20;51.38;;;5.10;99.90;;;;;;5033318;28;20506;-51
2022/03/15 06:24:08;;;;;;;244.45;48.90;;;5.10;99.90;;;;;;5032848;28;20037;-51
2022/03/15 06:26:35;;;;;;;223.82;48.50;;;5.20;99.90;;;;;;5031247;28;20042;-51
2022/03/15 06:29:03;;;;;;;226.10;48.10;;;5.20;99.90;;;;;;5030596;28;20022;-52
2022/03/15 06:31:33;;;;;;;278.50;45.75;;;5.20;99.90;;;;;;5033095;28;20056;-53
2022/03/15 06:33:59;;;;;;;390.55;47.40;;;5.10;99.90;;;;;;5033298;28;20422;-55
2022/03/15 06:36:25;;;;;;;184.73;43.42;;;5.00;99.90;;;;;;5032658;28;20029;-53
2022/03/15 06:38:51;;;;;;;215.50;43.85;;;5.00;99.90;;;;;;5031597;28;20419;-54
2022/03/15 06:41:17;;;;;;;405.00;45.28;;;5.00;99.90;;;;;;5032747;28;20185;-57
2022/03/15 06:43:43;;;;;;;233.85;44.03;;;4.90;99.90;;;;;;5032933;28;20029;-56
2022/03/15 06:46:09;;;;;;;232.20;44.58;;;4.90;99.90;;;;;;5032130;28;20033;-56
2022/03/15 06:48:35;;;;;;;169.98;45.05;;;5.00;99.90;;;;;;5032875;28;20509;-58
2022/03/15 06:51:02;;;;;;;176.35;46.08;;;5.10;99.90;;;;;;5028275;28;20037;-61
2022/03/15 06:53:28;;;;;;;193.68;45.13;;;5.00;99.90;;;;;;5023709;28;20057;-52
2022/03/15 06:55:58;;;;;;;276.10;46.63;;;5.10;99.90;;;;;;5011915;28;20064;-51
2022/03/15 06:58:23;;;;;;;157.50;44.97;;;5.00;99.90;;;;;;5026324;28;20048;-54
2022/03/15 07:00:49;;;;;;;140.43;46.60;;;5.10;99.90;;;;;;5031611;28;20483;-55
2022/03/15 07:03:15;;;;;;;164.95;44.45;;;5.20;99.90;;;;;;5031981;28;20140;-52
2022/03/15 07:05:41;;;;;;;129.68;46.95;;;5.20;99.90;;;;;;5030640;28;20021;-56
2022/03/15 07:08:07;;;;;;;145.45;45.80;;;5.20;99.90;;;;;;5032342;28;20038;-52
2022/03/15 07:10:33;;;;;;;171.52;48.17;;;5.30;99.90;;;;;;5025599;28;20080;-59
2022/03/15 07:13:00;;;;;;;131.55;46.15;;;5.40;99.90;;;;;;5028336;28;20457;-61
2022/03/15 07:15:26;;;;;;;139.60;45.15;;;5.40;99.90;;;;;;5013391;28;20036;-57
2022/03/15 07:17:57;;;;;;;237.75;44.55;;;5.50;99.90;;;;;;5032226;28;20175;-58
2022/03/15 07:20:24;;;;;;;190.15;44.38;;;5.30;99.90;;;;;;5031106;28;20555;-57
2022/03/15 07:22:51;;;;;;;138.68;44.97;;;5.30;99.90;;;;;;5031150;28;20340;-52
2022/03/15 07:25:17;;;;;;;129.57;44.00;;;5.30;99.90;;;;;;5031611;28;20026;-53
2022/03/15 07:27:44;;;;;;;133.68;44.75;;;5.30;99.90;;;;;;5019198;28;20553;-53
2022/03/15 07:30:11;;;;;;;120.93;44.10;;;5.30;99.90;;;;;;5018408;28;20113;-53
2022/03/15 07:32:37;;;;;;;143.40;46.55;;;5.40;99.90;;;;;;5030924;28;20029;-56
2022/03/15 07:35:03;;;;;;;128.52;46.92;;;5.40;99.90;;;;;;5029736;28;20140;-55
2022/03/15 07:37:30;;;;;;;119.85;46.22;;;5.40;99.90;;;;;;5030285;28;20079;-53
2022/03/15 07:40:00;;;;;;;138.57;44.75;;;5.50;99.90;;;;;;5030293;28;20068;-55
2022/03/15 07:42:26;;;;;;;133.82;46.92;;;5.50;99.90;;;;;;5030091;28;20047;-54
2022/03/15 07:44:52;;;;;;;120.57;44.83;;;5.40;99.90;;;;;;5023136;28;20095;-53
2022/03/15 07:47:18;;;;;;;122.25;45.33;;;5.50;99.90;;;;;;5031403;28;20110;-54
2022/03/15 07:49:47;;;;;;;137.70;49.05;;;5.50;99.90;;;;;;5031625;28;20373;-55
2022/03/15 07:52:14;;;;;;;148.38;50.80;;;5.50;99.90;;;;;;5030340;28;20087;-54
2022/03/15 07:54:41;;;;;;;135.27;49.35;;;5.60;99.90;;;;;;5030645;28;20030;-53
2022/03/15 07:57:07;;;;;;;138.07;52.03;;;5.60;99.90;;;;;;5030798;28;20025;-54
2022/03/15 07:59:32;;;;;;;138.20;49.67;;;5.60;99.90;;;;;;5031005;28;20037;-53
2022/03/15 08:01:59;;;;;;;139.40;51.10;;;5.60;99.90;;;;;;5030907;28;20098;-55
2022/03/15 08:04:24;;;;;;;148.70;50.70;;;5.60;99.90;;;;;;5031303;28;20031;-53
2022/03/15 08:06:50;;;;;;;130.98;51.30;;;5.70;99.90;;;;;;5030715;28;20394;-55
2022/03/15 08:09:16;;;;;;;133.20;50.13;;;5.80;99.90;;;;;;5030864;28;20506;-56
2022/03/15 08:11:41;;;;;;;134.10;51.47;;;5.90;99.90;;;;;;5031446;28;20037;-55
2022/03/15 08:14:09;;;;;;;130.68;50.05;;;5.90;99.90;;;;;;5029076;28;20053;-56
2022/03/15 08:16:35;;;;;;;123.85;52.22;;;6.00;99.90;;;;;;5030589;28;20243;-56
2022/03/15 08:19:00;;;;;;;121.50;50.92;;;6.10;99.90;;;;;;5030859;28;20084;-55
2022/03/15 08:21:26;;;;;;;122.70;49.88;;;6.00;99.90;;;;;;5030184;28;20041;-56
2022/03/15 08:23:52;;;;;;;127.10;49.85;;;6.20;99.90;;;;;;5031347;28;20045;-54
2022/03/15 08:26:18;;;;;;;137.70;51.28;;;6.20;99.90;;;;;;5030594;28;20033;-50
2022/03/15 08:28:48;;;;;;;147.50;53.53;;;6.40;99.90;;;;;;5030636;28;20029;-49
2022/03/15 08:31:14;;;;;;;137.35;51.00;;;6.50;99.90;;;;;;5030911;28;20360;-51
2022/03/15 08:33:40;;;;;;;141.48;51.00;;;6.60;99.90;;;;;;5030247;28;20034;-51
2022/03/15 08:36:06;;;;;;;136.95;53.80;;;6.70;99.90;;;;;;5030260;28;20080;-52
2022/03/15 08:38:32;;;;;;;129.50;49.88;;;6.80;99.90;;;;;;5031091;28;20116;-50
2022/03/15 08:40:58;;;;;;;133.18;49.90;;;6.90;99.90;;;;;;5030847;28;20033;-51
2022/03/15 08:43:24;;;;;;;135.52;50.47;;;7.00;99.90;;;;;;5030283;28;20025;-50
2022/03/15 08:45:50;;;;;;;135.75;51.25;;;7.00;99.90;;;;;;5030391;28;20116;-54
2022/03/15 08:48:16;;;;;;;133.75;50.22;;;7.20;99.90;;;;;;5012673;28;20037;-51
2022/03/15 08:50:42;;;;;;;151.93;53.22;;;7.20;99.90;;;;;;5030733;28;20441;-50
2022/03/15 08:53:08;;;;;;;143.73;52.58;;;7.20;99.90;;;;;;5030123;28;20021;-52
2022/03/15 08:55:35;;;;;;;139.55;50.75;;;7.20;99.90;;;;;;5030855;28;20128;-54
2022/03/15 08:58:01;;;;;;;104.72;42.05;;;7.30;99.90;;;;;;5029539;28;20061;-55
2022/03/15 09:00:26;;;;;;;89.63;39.78;;;7.40;99.90;;;;;;5031007;28;20061;-57
2022/03/15 09:02:52;;;;;;;106.90;42.22;;;7.30;99.90;;;;;;5030564;28;20049;-52
2022/03/15 09:05:18;;;;;;;104.85;43.40;;;7.20;99.90;;;;;;5029501;28;20079;-51
2022/03/15 09:07:50;;;;;;;113.00;49.13;;;7.30;99.90;;;;;;5030688;28;20387;-51
2022/03/15 09:10:16;;;;;;;129.60;50.85;;;7.30;99.90;;;;;;5029978;28;20124;-51
2022/03/15 09:12:42;;;;;;;133.32;53.03;;;7.40;99.90;;;;;;5030163;28;20235;-49
2022/03/15 09:15:08;;;;;;;131.80;54.28;;;7.40;99.90;;;;;;5028099;28;20056;-55
2022/03/15 09:17:33;;;;;;;132.23;51.25;;;7.50;99.90;;;;;;5030414;28;20077;-56
2022/03/15 09:19:59;;;;;;;126.43;52.03;;;7.50;99.90;;;;;;5029861;28;20034;-55
2022/03/15 09:22:25;;;;;;;131.52;52.92;;;7.50;99.90;;;;;;5028797;28;20034;-56
2022/03/15 09:24:50;;;;;;;126.32;50.20;;;7.50;99.90;;;;;;5029693;28;20041;-53
2022/03/15 09:27:16;;;;;;;117.32;47.72;;;7.50;99.90;;;;;;5029145;28;20033;-55
2022/03/15 09:29:41;;;;;;;116.07;50.20;;;7.60;99.90;;;;;;5029742;28;20036;-57
2022/03/15 09:32:10;;;;;;;111.45;48.15;;;7.60;99.90;;;;;;5027874;28;20551;-55
2022/03/15 09:34:37;;;;;;;108.30;47.78;;;7.70;99.90;;;;;;5029906;28;20490;-57
2022/03/15 09:37:04;;;;;;;118.00;46.40;;;7.80;99.90;;;;;;5028652;28;20036;-55
2022/03/15 09:39:33;;;;;;;104.70;47.45;;;7.80;99.90;;;;;;5029661;28;20033;-57
2022/03/15 09:41:59;;;;;;;109.93;47.90;;;7.90;99.90;;;;;;5029813;28;20107;-57
2022/03/15 09:44:28;;;;;;;117.53;47.35;;;7.90;99.90;;;;;;5029928;28;20026;-56
2022/03/15 09:46:58;;;;;;;101.50;45.45;;;8.00;99.90;;;;;;5029538;28;20033;-54
2022/03/15 09:49:25;;;;;;;107.68;47.05;;;8.00;99.90;;;;;;5029674;28;20030;-55
2022/03/15 09:51:53;;;;;;;108.28;47.58;;;8.10;99.90;;;;;;5029444;28;20037;-54
2022/03/15 09:54:20;;;;;;;100.55;43.65;;;8.10;99.90;;;;;;5029089;28;20452;-57
2022/03/15 09:56:46;;;;;;;91.40;41.15;;;8.10;99.90;;;;;;5029362;28;20064;-52
2022/03/15 09:59:15;;;;;;;91.18;41.67;;;8.20;99.90;;;;;;5029209;28;20456;-49
2022/03/15 10:01:42;;;;;;;89.95;41.50;;;8.20;99.90;;;;;;5030112;28;20041;-49
2022/03/15 10:04:08;;;;;;;79.25;38.42;;;8.30;99.90;;;;;;5029422;28;20113;-50
2022/03/15 10:06:36;;;;;;;85.43;39.65;;;8.30;99.90;;;;;;5028148;28;20138;-50
2022/03/15 10:09:03;;;;;;;91.82;39.72;;;8.30;99.90;;;;;;5029450;28;20038;-51
2022/03/15 10:11:29;;;;;;;76.32;38.55;;;8.40;99.90;;;;;;5028039;28;20117;-50
2022/03/15 10:13:58;;;;;;;74.78;37.50;;;8.40;99.90;;;;;;5029520;28;20128;-49
2022/03/15 10:16:30;;;;;;;72.90;37.67;;;8.40;99.90;;;;;;5027546;28;20057;-55
2022/03/15 10:18:58;;;;;;;69.50;36.30;;;8.40;99.90;;;;;;5011601;28;20036;-53
2022/03/15 10:21:25;;;;;;;65.35;33.97;;;8.50;99.90;;;;;;5029534;28;20065;-54
2022/03/15 10:23:55;;;;;;;66.18;31.92;;;8.50;99.90;;;;;;5029887;28;20029;-51
2022/03/15 10:26:25;;;;;;;63.85;31.52;;;8.60;99.90;;;;;;5028767;28;20025;-52
2022/03/15 10:28:53;;;;;;;59.67;30.73;;;8.60;99.90;;;;;;5028923;28;20460;-51
2022/03/15 10:31:21;;;;;;;65.03;30.45;;;8.70;99.90;;;;;;5027347;28;20033;-50
2022/03/15 10:33:47;;;;;;;49.50;25.38;;;8.80;99.90;;;;;;5029925;28;20018;-49
2022/03/15 10:36:18;;;;;;;51.53;24.25;;;8.90;99.90;;;;;;5028437;28;20064;-50
2022/03/15 10:38:48;;;;;;;45.58;22.98;;;8.90;99.90;;;;;;5028992;28;20064;-52
2022/03/15 10:41:16;;;;;;;47.88;24.95;;;8.90;99.90;;;;;;5028844;28;20509;-53
2022/03/15 10:43:41;;;;;;;45.28;22.55;;;8.80;99.90;;;;;;5029581;28;20033;-52
2022/03/15 10:46:10;;;;;;;50.65;23.80;;;8.90;99.90;;;;;;5032065;28;20070;-54
2022/03/15 10:48:37;;;;;;;42.30;22.35;;;8.90;99.90;;;;;;5032586;28;20106;-52
2022/03/15 10:51:14;;;;;;;45.03;21.98;;;8.90;99.90;;;;;;5032225;28;20029;-53
2022/03/15 10:53:47;;;;;;;40.13;20.55;;;9.00;99.90;;;;;;5033014;28;20184;-54
2022/03/15 10:56:20;;;;;;;39.88;19.27;;;9.10;99.90;;;;;;5031580;28;20033;-54
2022/03/15 10:58:54;;;;;;;40.90;19.33;;;9.20;99.90;;;;;;5032248;28;20190;-55
2022/03/15 11:01:22;;;;;;;39.97;18.15;;;9.20;99.90;;;;;;5031860;28;20037;-57
2022/03/15 11:03:58;;;;;;;39.80;18.83;;;9.20;99.90;;;;;;5030527;28;20052;-58
2022/03/15 11:06:38;;;;;;;35.60;19.05;;;9.20;99.90;;;;;;5031813;28;20030;-56
2022/03/15 11:09:18;;;;;;;44.75;19.65;;;9.20;99.90;;;;;;5031482;28;20029;-55
2022/03/15 11:11:51;;;;;;;45.65;19.98;;;9.30;99.90;;;;;;5032248;28;20029;-55
2022/03/15 11:14:29;;;;;;;35.25;18.58;;;9.30;99.90;;;;;;5031671;28;20025;-54
2022/03/15 11:16:57;;;;;;;41.80;19.50;;;9.40;99.90;;;;;;5030315;28;20025;-54
2022/03/15 11:19:27;;;;;;;37.83;18.17;;;9.30;99.90;;;;;;5031845;28;20049;-56
2022/03/15 11:21:52;;;;;;;38.97;19.15;;;9.50;99.90;;;;;;5032096;28;20508;-54
2022/03/15 11:24:25;;;;;;;38.03;18.30;;;9.50;99.90;;;;;;5030214;28;20116;-56
2022/03/15 11:26:52;;;;;;;39.03;19.27;;;9.70;99.90;;;;;;5031504;28;20037;-55
2022/03/15 11:29:22;;;;;;;39.25;18.00;;;9.70;99.90;;;;;;5030689;28;20038;-57
2022/03/15 11:31:49;;;;;;;37.78;19.85;;;9.80;99.90;;;;;;5032144;28;20113;-53
2022/03/15 11:34:19;;;;;;;40.00;20.42;;;9.90;99.90;;;;;;5031698;28;20033;-57
2022/03/15 11:36:46;;;;;;;41.17;19.25;;;9.90;99.90;;;;;;5031601;28;20030;-57
2022/03/15 11:39:12;;;;;;;42.85;19.83;;;10.00;99.90;;;;;;5031232;28;20033;-55
2022/03/15 11:41:38;;;;;;;41.95;19.55;;;9.90;99.90;;;;;;5030787;28;20049;-55
2022/03/15 11:44:15;;;;;;;34.97;19.02;;;9.90;99.90;;;;;;5031113;28;20476;-54
2022/03/15 11:46:47;;;;;;;38.20;19.73;;;9.90;99.90;;;;;;5030913;28;20031;-56
2022/03/15 11:49:24;;;;;;;47.65;18.08;;;10.00;99.90;;;;;;5030865;28;20021;-55
2022/03/15 11:52:17;;;;;;;42.47;18.35;;;10.20;99.90;;;;;;5031294;28;20033;-56
2022/03/15 11:55:05;;;;;;;50.00;19.45;;;10.30;99.90;;;;;;5031292;28;20555;-55
2022/03/15 11:57:40;;;;;;;41.10;18.75;;;10.30;99.90;;;;;;5031176;28;20022;-56
2022/03/15 12:00:06;;;;;;;40.00;19.30;;;10.30;99.90;;;;;;5012786;28;20072;-54
2022/03/15 12:02:40;;;;;;;39.10;18.85;;;10.40;99.90;;;;;;5030043;28;20118;-56
2022/03/15 12:05:17;;;;;;;44.13;21.23;;;10.40;99.90;;;;;;5030388;28;20887;-51
2022/03/15 12:07:46;;;;;;;41.33;20.48;;;10.50;99.90;;;;;;5031884;28;20116;-52
2022/03/15 12:10:24;;;;;;;44.92;20.65;;;10.50;99.90;;;;;;5031423;28;20032;-53
2022/03/15 12:13:04;;;;;;;46.80;21.10;;;10.60;99.90;;;;;;5031427;28;20025;-51
2022/03/15 12:15:38;;;;;;;39.00;18.60;;;10.70;99.90;;;;;;5030695;28;20032;-52
2022/03/15 12:21:02;;;;;;;44.50;20.42;;;10.80;99.90;;;;;;5031461;28;20104;-49
2022/03/15 12:23:39;;;;;;;42.83;20.13;;;10.90;99.90;;;;;;5031047;28;20026;-50
2022/03/15 12:26:05;;;;;;;43.67;21.02;;;11.00;99.90;;;;;;5030248;28;20033;-57
2022/03/15 12:28:32;;;;;;;46.10;20.52;;;11.00;99.90;;;;;;5031105;28;20030;-50
2022/03/15 12:31:06;;;;;;;39.33;19.95;;;11.10;99.90;;;;;;5030783;28;20344;-56
2022/03/15 12:33:34;;;;;;;43.50;21.35;;;11.10;99.90;;;;;;5030690;28;20056;-57